Time;durP1;ratioP1;P1;durP2;ratioP2;P2;SDS_P1;SDS_P2;PMS_P1;PMS_P2;Temp;Humidity;BMP_temperature;BMP_pressure;BME280_temperature;BME280_humidity;BME280_pressure;Samples;Min_cycle;Max_cycle;Signal;HPM_P1;HPM_P2
2024/04/10 00:01:38;;;;;;;20.00;17.83;;;;;;;17.85;88.06;100164.59;5054094;28;20041;-77
2024/04/10 00:04:47;;;;;;;21.00;18.80;;;;;;;17.81;88.19;100155.13;5054006;28;20045;-78
2024/04/10 00:07:52;;;;;;;20.20;18.17;;;;;;;17.83;87.72;100144.91;5054288;28;20053;-77
2024/04/10 00:10:56;;;;;;;21.08;18.00;;;;;;;17.82;87.74;100140.53;5054349;28;20041;-77
2024/04/10 00:14:00;;;;;;;23.23;18.50;;;;;;;17.80;87.58;100134.44;5053681;28;20045;-77
2024/04/10 00:17:05;;;;;;;23.50;20.75;;;;;;;17.78;87.51;100136.47;5053873;28;20048;-77
2024/04/10 00:20:10;;;;;;;21.80;18.23;;;;;;;17.72;88.04;100127.22;5054033;28;20045;-78
2024/04/10 00:23:14;;;;;;;20.27;17.90;;;;;;;17.78;87.89;100140.03;5054014;28;20045;-77
2024/04/10 00:26:19;;;;;;;23.05;19.20;;;;;;;17.72;88.34;100150.81;5053712;28;20049;-76
2024/04/10 00:29:23;;;;;;;20.33;17.77;;;;;;;17.71;87.68;100141.81;5053595;28;20392;-77
2024/04/10 00:32:28;;;;;;;20.90;17.83;;;;;;;17.77;87.16;100146.53;5053826;28;20040;-76
2024/04/10 00:35:33;;;;;;;23.75;18.83;;;;;;;17.78;87.16;100140.03;5053618;28;20049;-78
2024/04/10 00:38:37;;;;;;;22.42;18.38;;;;;;;17.74;87.30;100143.31;5052818;28;20459;-76
2024/04/10 00:41:42;;;;;;;21.10;18.90;;;;;;;17.77;87.13;100140.25;5041371;28;20048;-77
2024/04/10 00:44:52;;;;;;;22.92;17.55;;;;;;;17.94;86.40;100139.03;5041417;28;20049;-79
2024/04/10 00:47:57;;;;;;;21.00;18.77;;;;;;;17.79;86.99;100135.47;5053386;28;20380;-78
2024/04/10 00:51:02;;;;;;;19.52;17.38;;;;;;;17.82;86.74;100143.25;5053556;28;20460;-78
2024/04/10 00:54:07;;;;;;;23.55;18.42;;;;;;;17.77;87.13;100132.09;5053339;28;20385;-77
2024/04/10 00:57:11;;;;;;;20.88;18.23;;;;;;;17.74;87.31;100136.03;5053038;28;20045;-77
2024/04/10 01:00:17;;;;;;;26.65;18.70;;;;;;;17.64;88.24;100145.47;5053337;28;20041;-79
2024/04/10 01:03:24;;;;;;;22.33;17.73;;;;;;;17.54;88.67;100156.59;5040592;28;20049;-77
2024/04/10 01:06:31;;;;;;;21.67;17.67;;;;;;;17.59;88.87;100158.75;5052995;28;20044;-78
2024/04/10 01:09:37;;;;;;;24.55;19.60;;;;;;;17.64;88.74;100159.88;5053158;28;20041;-77
2024/04/10 01:12:43;;;;;;;23.55;19.10;;;;;;;17.61;88.88;100167.53;5053199;28;20484;-78
2024/04/10 01:15:48;;;;;;;23.38;19.42;;;;;;;17.50;89.44;100166.09;5053107;28;20036;-77
2024/04/10 01:18:52;;;;;;;23.65;19.10;;;;;;;17.47;89.96;100172.75;5040445;28;20041;-76
2024/04/10 01:21:57;;;;;;;25.73;20.15;;;;;;;17.36;90.49;100173.16;5053051;28;20037;-77
2024/04/10 01:25:03;;;;;;;21.95;19.58;;;;;;;17.35;90.58;100160.63;5052990;28;20045;-77
2024/04/10 01:28:09;;;;;;;22.33;19.27;;;;;;;17.32;90.23;100149.28;5040816;28;20045;-76
2024/04/10 01:31:13;;;;;;;24.92;20.55;;;;;;;17.26;90.76;100148.16;5052535;28;20044;-76
2024/04/10 01:34:18;;;;;;;23.70;20.48;;;;;;;17.28;90.86;100139.84;5052936;28;20380;-78
2024/04/10 01:37:22;;;;;;;26.13;20.50;;;;;;;17.29;90.48;100141.50;5052888;28;20049;-77
2024/04/10 01:40:27;;;;;;;23.23;19.95;;;;;;;17.28;90.76;100137.13;5052623;28;20045;-75
2024/04/10 01:43:31;;;;;;;23.67;21.13;;;;;;;17.13;91.46;100137.09;5052942;28;20045;-79
2024/04/10 01:46:37;;;;;;;23.52;20.40;;;;;;;17.16;91.37;100139.41;5052936;28;20045;-79
2024/04/10 01:49:41;;;;;;;29.23;22.20;;;;;;;17.06;91.67;100127.97;5053015;28;20053;-78
2024/04/10 01:52:46;;;;;;;27.67;20.10;;;;;;;17.12;91.89;100127.25;5033377;28;20037;-79
2024/04/10 01:55:51;;;;;;;24.15;21.63;;;;;;;17.04;92.35;100138.16;5056710;28;20044;-79
2024/04/10 01:58:56;;;;;;;30.15;20.00;;;;;;;17.08;92.62;100135.94;5056052;28;20425;-78
2024/04/10 02:02:00;;;;;;;26.02;21.73;;;;;;;17.06;92.75;100135.28;5044550;28;20041;-79
2024/04/10 02:05:05;;;;;;;27.58;21.52;;;;;;;17.21;92.27;100128.84;5056609;28;20041;-79
2024/04/10 02:08:09;;;;;;;23.20;20.70;;;;;;;17.14;92.19;100141.47;5056646;28;20061;-78
2024/04/10 02:11:23;;;;;;;28.63;21.50;;;;;;;17.07;92.09;100147.78;5056408;28;20049;-76
2024/04/10 02:14:28;;;;;;;24.23;21.23;;;;;;;17.02;92.63;100145.63;5056414;28;20041;-79
2024/04/10 02:17:32;;;;;;;23.58;21.02;;;;;;;17.06;92.03;100136.09;5043725;28;20041;-76
2024/04/10 02:20:36;;;;;;;23.25;20.75;;;;;;;17.05;92.15;100120.03;5056000;28;20427;-79
2024/04/10 02:23:41;;;;;;;23.77;20.90;;;;;;;17.07;92.23;100131.53;5056289;28;20045;-78
2024/04/10 02:26:46;;;;;;;25.38;21.15;;;;;;;16.92;93.18;100118.75;5056271;28;20041;-78
2024/04/10 02:29:50;;;;;;;23.48;20.55;;;;;;;16.91;92.50;100117.06;5056093;28;20044;-76
2024/04/10 02:32:55;;;;;;;21.55;19.35;;;;;;;17.14;91.44;100113.50;5043487;28;20044;-79
2024/04/10 02:36:00;;;;;;;22.02;17.90;;;;;;;17.11;90.92;100112.00;5055736;28;20147;-78
2024/04/10 02:39:04;;;;;;;18.73;16.55;;;;;;;16.94;92.07;100115.03;5055976;28;20041;-79
2024/04/10 02:42:09;;;;;;;18.85;16.67;;;;;;;16.94;92.21;100109.63;5043719;28;20045;-77
2024/04/10 02:45:26;;;;;;;17.95;16.00;;;;;;;16.97;92.35;100117.38;5055749;28;20074;-78
2024/04/10 02:48:30;;;;;;;18.85;16.33;;;;;;;16.95;91.99;100122.97;5043237;28;20041;-78
2024/04/10 02:51:34;;;;;;;16.60;14.90;;;;;;;16.84;92.02;100126.94;5055458;28;20033;-79
2024/04/10 02:54:39;;;;;;;21.13;15.30;;;;;;;16.74;92.90;100120.06;5055657;28;20379;-77
2024/04/10 02:57:43;;;;;;;15.13;13.20;;;;;;;16.71;93.09;100117.75;5042611;28;20057;-79
2024/04/10 03:00:51;;;;;;;12.65;10.55;;;;;;;16.83;92.82;100128.00;5055409;28;20384;-77
2024/04/10 03:03:57;;;;;;;9.77;8.77;;;;;;;16.81;92.00;100127.31;5055225;28;20048;-77
2024/04/10 03:07:03;;;;;;;9.40;8.23;;;;;;;16.97;90.50;100126.34;5055352;28;20052;-78
2024/04/10 03:10:09;;;;;;;6.75;6.05;;;;;;;16.74;89.95;100139.88;5055296;28;20056;-78
2024/04/10 03:13:14;;;;;;;4.70;3.72;;;;;;;16.61;89.07;100142.38;5055167;28;20423;-78
2024/04/10 03:16:18;;;;;;;4.43;3.00;;;;;;;16.46;89.42;100143.25;5055236;28;20578;-79
2024/04/10 03:19:23;;;;;;;3.75;2.70;;;;;;;16.48;89.41;100143.91;5055137;28;20380;-77
2024/04/10 03:22:27;;;;;;;4.18;2.80;;;;;;;16.36;89.21;100129.94;5055116;28;20487;-78
2024/04/10 03:25:33;;;;;;;3.97;2.40;;;;;;;16.27;89.87;100107.44;5054981;28;20056;-79
2024/04/10 03:28:40;;;;;;;5.25;2.35;;;;;;;16.20;90.14;100098.34;5054688;28;20491;-79
2024/04/10 03:31:44;;;;;;;3.97;2.08;;;;;;;16.26;89.44;100099.50;5054843;28;20052;-78
2024/04/10 03:34:49;;;;;;;2.47;1.58;;;;;;;16.16;89.36;100125.97;5054577;28;20056;-78
2024/04/10 03:37:53;;;;;;;2.60;1.70;;;;;;;15.93;89.80;100142.13;5054574;28;20051;-79
2024/04/10 03:40:58;;;;;;;2.10;1.30;;;;;;;15.82;90.62;100141.66;5054747;28;20154;-79
2024/04/10 03:44:05;;;;;;;3.72;1.20;;;;;;;15.71;90.68;100142.00;5054607;28;20052;-78
2024/04/10 03:47:09;;;;;;;1.77;1.10;;;;;;;15.63;91.29;100140.16;5054508;28;20072;-77
2024/04/10 03:50:14;;;;;;;1.88;1.00;;;;;;;15.97;90.26;100143.44;5042154;28;20052;-78
2024/04/10 03:53:18;;;;;;;1.33;0.80;;;;;;;15.94;89.55;100132.13;5054386;28;20064;-80
2024/04/10 03:56:23;;;;;;;2.13;0.80;;;;;;;15.87;89.87;100145.53;5054319;28;20048;-80
2024/04/10 03:59:28;;;;;;;2.38;0.85;;;;;;;16.01;89.08;100160.19;5053604;28;20052;-79
2024/04/10 04:02:34;;;;;;;1.80;0.80;;;;;;;16.11;88.73;100177.94;5054261;28;20063;-79
2024/04/10 04:05:38;;;;;;;1.73;0.90;;;;;;;15.81;88.65;100205.75;5054136;28;20056;-79
2024/04/10 04:08:43;;;;;;;2.58;0.75;;;;;;;15.74;89.10;100218.28;5041844;28;20048;-79
2024/04/10 04:11:48;;;;;;;4.78;0.80;;;;;;;15.67;89.60;100205.63;5054193;28;20044;-78
2024/04/10 04:14:53;;;;;;;1.90;0.63;;;;;;;16.02;88.89;100199.81;5054014;28;20116;-79
2024/04/10 04:17:57;;;;;;;2.35;0.80;;;;;;;16.02;87.55;100213.34;5041762;28;20510;-79
2024/04/10 04:21:03;;;;;;;3.38;1.02;;;;;;;15.89;89.01;100216.59;5041913;28;20047;-77
2024/04/10 04:24:08;;;;;;;2.80;0.80;;;;;;;15.95;88.62;100228.59;5054042;28;20048;-78
2024/04/10 04:27:14;;;;;;;1.45;0.57;;;;;;;16.31;87.92;100226.28;5053661;28;20052;-78
2024/04/10 04:30:18;;;;;;;3.80;0.70;;;;;;;16.27;87.47;100225.78;5053834;28;20056;-79
2024/04/10 04:33:23;;;;;;;2.58;0.60;;;;;;;15.62;89.54;100235.91;5053859;28;20047;-77
2024/04/10 04:36:28;;;;;;;1.13;0.40;;;;;;;15.76;90.00;100229.78;5053460;28;20400;-78
2024/04/10 04:39:33;;;;;;;1.10;0.40;;;;;;;15.79;89.61;100225.91;5053648;28;20056;-77
2024/04/10 04:42:37;;;;;;;2.63;0.85;;;;;;;15.77;90.05;100220.66;5053472;28;20060;-76
2024/04/10 04:45:42;;;;;;;1.40;0.32;;;;;;;15.65;89.47;100232.84;5053452;28;20060;-76
2024/04/10 04:48:46;;;;;;;1.10;0.40;;;;;;;15.98;88.52;100256.16;5053607;28;20056;-77
2024/04/10 04:51:51;;;;;;;1.40;0.70;;;;;;;16.01;88.46;100253.09;5053584;28;20072;-80
2024/04/10 04:54:55;;;;;;;1.05;0.50;;;;;;;15.94;88.57;100251.25;5053541;28;20052;-77
2024/04/10 04:58:00;;;;;;;5.78;0.60;;;;;;;15.80;89.37;100223.00;5011349;28;20072;-78
2024/04/10 05:01:06;;;;;;;1.40;0.30;;;;;;;15.65;89.35;100216.63;5011735;28;20053;-79
2024/04/10 05:07:34;;;;;;;2.88;0.20;;;;;;;15.64;88.85;100223.03;5011558;28;20049;-76
2024/04/10 05:10:38;;;;;;;1.63;0.22;;;;;;;15.52;89.73;100232.50;5011754;28;20049;-79
2024/04/10 05:13:43;;;;;;;3.50;0.47;;;;;;;15.54;89.15;100230.47;5000001;28;20065;-79
2024/04/10 05:16:47;;;;;;;0.68;0.20;;;;;;;15.63;88.75;100237.56;5011342;28;20045;-78
2024/04/10 05:19:52;;;;;;;3.28;0.32;;;;;;;15.64;88.94;100241.97;5011444;28;20144;-79
2024/04/10 05:22:56;;;;;;;0.63;0.20;;;;;;;15.59;89.15;100257.88;5011624;28;20137;-78
2024/04/10 05:26:02;;;;;;;0.40;0.20;;;;;;;15.59;89.56;100261.44;5013820;28;20134;-78
2024/04/10 05:29:07;;;;;;;1.00;0.30;;;;;;;15.55;89.79;100251.94;5032196;28;20048;-81
2024/04/10 05:32:12;;;;;;;1.15;0.30;;;;;;;15.38;89.90;100262.91;5037045;28;20400;-77
2024/04/10 05:35:17;;;;;;;0.95;0.30;;;;;;;15.35;90.38;100268.66;5037713;28;20045;-76
2024/04/10 05:38:22;;;;;;;1.38;0.20;;;;;;;15.40;90.04;100274.41;5036775;28;20056;-80
2024/04/10 05:41:26;;;;;;;0.70;0.20;;;;;;;15.36;90.40;100281.16;5036954;28;20066;-79
2024/04/10 05:44:31;;;;;;;1.83;0.30;;;;;;;15.55;89.53;100289.00;5036754;28;20116;-81
2024/04/10 05:47:38;;;;;;;1.55;0.40;;;;;;;15.56;89.38;100306.91;5036941;28;20072;-80
2024/04/10 05:50:42;;;;;;;3.55;1.90;;;;;;;15.48;89.75;100310.44;5036903;28;20056;-79
2024/04/10 05:53:47;;;;;;;4.85;1.38;;;;;;;15.63;89.42;100320.63;5036080;28;20052;-79
2024/04/10 05:56:52;;;;;;;2.33;0.30;;;;;;;15.63;89.83;100324.16;5036933;28;20052;-80
2024/04/10 05:59:58;;;;;;;1.88;0.50;;;;;;;15.63;90.01;100318.75;5016849;28;20049;-78
2024/04/10 06:03:02;;;;;;;0.95;0.30;;;;;;;15.72;89.35;100322.31;5016910;28;20064;-78
2024/04/10 06:06:19;;;;;;;5.30;0.70;;;;;;;15.93;88.80;100320.78;5016005;28;20054;-77
2024/04/10 06:09:24;;;;;;;2.67;0.52;;;;;;;15.86;88.86;100318.94;5016916;28;20052;-77
2024/04/10 06:12:28;;;;;;;0.93;0.30;;;;;;;15.89;88.53;100314.03;5017182;28;20065;-79
2024/04/10 06:15:33;;;;;;;2.58;0.60;;;;;;;15.74;89.38;100309.47;5016339;28;20049;-79
2024/04/10 06:18:39;;;;;;;1.40;0.43;;;;;;;15.61;89.94;100308.09;5006495;28;20246;-75
2024/04/10 06:21:44;;;;;;;2.55;0.60;;;;;;;15.56;90.04;100301.50;5034938;28;20049;-76
2024/04/10 06:24:48;;;;;;;1.48;0.32;;;;;;;15.60;90.11;100301.00;5035028;28;20049;-78
2024/04/10 06:27:54;;;;;;;2.10;0.55;;;;;;;15.75;90.01;100300.34;5035796;28;20052;-75
2024/04/10 06:31:01;;;;;;;1.98;0.47;;;;;;;15.80;89.15;100308.81;5031130;28;20044;-75
2024/04/10 06:34:06;;;;;;;2.97;0.68;;;;;;;15.90;89.21;100304.06;5035360;28;20044;-78
2024/04/10 06:37:15;;;;;;;2.08;0.50;;;;;;;15.89;88.86;100297.78;5035604;28;20056;-77
2024/04/10 06:40:20;;;;;;;3.50;0.60;;;;;;;15.81;89.15;100300.50;5034830;28;20527;-75
2024/04/10 06:43:25;;;;;;;5.22;0.50;;;;;;;15.91;88.67;100306.59;5033464;28;20052;-75
2024/04/10 06:46:31;;;;;;;2.25;0.43;;;;;;;15.79;88.36;100312.50;5034686;28;20404;-73
2024/04/10 06:49:36;;;;;;;4.10;0.70;;;;;;;15.69;89.38;100317.22;5027402;28;20100;-76
2024/04/10 06:52:40;;;;;;;3.90;0.68;;;;;;;15.60;89.81;100329.94;5015026;28;20377;-76
2024/04/10 06:55:58;;;;;;;2.33;0.45;;;;;;;15.71;89.46;100324.16;5020491;28;20105;-73
2024/04/10 06:59:03;;;;;;;3.08;0.55;;;;;;;15.65;89.59;100305.91;5058838;28;20051;-76
2024/04/10 07:02:07;;;;;;;1.73;0.50;;;;;;;15.47;90.21;100303.38;5074864;28;20056;-75
2024/04/10 07:05:12;;;;;;;0.98;0.40;;;;;;;15.53;90.25;100304.53;5074866;28;20052;-76
2024/04/10 07:08:16;;;;;;;5.78;0.43;;;;;;;15.57;90.81;100314.03;5062152;28;20047;-80
2024/04/10 07:11:21;;;;;;;1.52;0.55;;;;;;;15.70;90.50;100302.69;5074877;28;20071;-79
2024/04/10 07:14:27;;;;;;;1.45;0.40;;;;;;;15.82;88.54;100304.06;5074740;28;20081;-78
2024/04/10 07:17:32;;;;;;;0.77;0.30;;;;;;;15.80;87.96;100306.91;5074700;28;20056;-76
2024/04/10 07:20:37;;;;;;;3.00;0.30;;;;;;;15.72;87.60;100316.91;5054294;28;20072;-78
2024/04/10 07:23:45;;;;;;;1.50;0.40;;;;;;;15.62;87.61;100327.91;4992958;28;20049;-76
2024/04/10 07:26:50;;;;;;;1.63;0.43;;;;;;;15.65;88.22;100332.13;4992680;28;20174;-75
2024/04/10 07:29:56;;;;;;;1.08;0.35;;;;;;;15.59;88.57;100342.59;4993997;28;20045;-76
2024/04/10 07:33:02;;;;;;;1.80;0.40;;;;;;;15.73;87.96;100351.91;5012382;28;20400;-75
2024/04/10 07:36:13;;;;;;;1.00;0.50;;;;;;;15.89;87.27;100357.34;5011600;28;20041;-75
2024/04/10 07:39:19;;;;;;;1.55;0.40;;;;;;;15.79;86.36;100375.59;5012308;28;20061;-76
2024/04/10 07:42:25;;;;;;;1.63;0.40;;;;;;;16.02;86.40;100389.34;5011945;28;20141;-77
2024/04/10 07:45:30;;;;;;;1.55;0.65;;;;;;;16.15;84.87;100395.94;5011563;28;20057;-77
2024/04/10 07:48:35;;;;;;;0.93;0.40;;;;;;;15.96;84.68;100395.41;5011398;28;20053;-79
2024/04/10 07:51:39;;;;;;;1.83;0.52;;;;;;;15.81;84.89;100395.22;5012145;28;20157;-78
2024/04/10 07:54:44;;;;;;;1.85;0.38;;;;;;;15.81;85.75;100414.19;5043025;28;20064;-79
2024/04/10 07:57:48;;;;;;;1.10;0.35;;;;;;;15.80;85.92;100401.66;5053375;28;20416;-77
2024/04/10 08:00:56;;;;;;;0.75;0.30;;;;;;;15.57;86.42;100411.44;5041239;28;20083;-79
2024/04/10 08:04:05;;;;;;;1.02;0.40;;;;;;;15.41;86.68;100419.44;5054555;28;20060;-75
2024/04/10 08:07:10;;;;;;;1.17;0.40;;;;;;;15.38;86.79;100420.63;5053768;28;20526;-75
2024/04/10 08:10:14;;;;;;;3.20;0.73;;;;;;;15.42;86.47;100424.72;5052855;28;20103;-78
2024/04/10 08:13:18;;;;;;;3.22;1.13;;;;;;;15.38;86.17;100419.78;5031897;28;20060;-78
2024/04/10 08:16:23;;;;;;;1.85;0.40;;;;;;;15.31;85.94;100441.22;5031136;28;20064;-76
2024/04/10 08:19:27;;;;;;;2.42;0.80;;;;;;;15.31;86.59;100451.19;5031055;28;20072;-76
2024/04/10 08:22:32;;;;;;;1.90;0.90;;;;;;;15.32;85.95;100445.63;5031085;28;20060;-76
2024/04/10 08:25:36;;;;;;;1.05;0.50;;;;;;;15.35;85.29;100455.28;5031253;28;20048;-75
2024/04/10 08:28:50;;;;;;;6.95;2.30;;;;;;;15.41;85.99;100451.91;5031200;28;20056;-77
2024/04/10 08:31:56;;;;;;;1.55;0.50;;;;;;;15.39;84.92;100456.63;5031868;28;20040;-77
2024/04/10 08:35:01;;;;;;;5.30;1.55;;;;;;;15.66;84.88;100456.44;5031282;28;20559;-76
2024/04/10 08:38:07;;;;;;;1.30;0.50;;;;;;;15.69;83.82;100450.69;5030645;28;20052;-77
2024/04/10 08:41:13;;;;;;;1.73;0.47;;;;;;;15.92;83.82;100454.47;5030893;28;20052;-77
2024/04/10 08:44:24;;;;;;;2.35;0.40;;;;;;;16.17;82.62;100453.47;5030475;28;20132;-77
2024/04/10 08:47:31;;;;;;;0.68;0.30;;;;;;;15.98;83.42;100455.66;5030705;28;20077;-76
2024/04/10 08:50:37;;;;;;;3.47;0.90;;;;;;;16.64;80.03;100439.28;5053163;28;20509;-78
2024/04/10 08:53:44;;;;;;;1.52;0.47;;;;;;;17.61;77.33;100439.00;5072674;28;20067;-75
2024/04/10 08:56:49;;;;;;;1.20;0.40;;;;;;;18.54;72.59;100438.69;5072490;28;20079;-77
2024/04/10 08:59:54;;;;;;;1.33;0.40;;;;;;;18.73;71.15;100446.34;5059068;28;20059;-75
2024/04/10 09:02:59;;;;;;;4.45;0.75;;;;;;;19.26;68.69;100439.78;5060347;28;20047;-76
2024/04/10 09:06:07;;;;;;;1.80;0.60;;;;;;;19.25;69.76;100443.56;5072938;28;20060;-75
2024/04/10 09:09:13;;;;;;;2.55;0.55;;;;;;;18.84;70.63;100448.59;5072870;28;20052;-75
2024/04/10 09:12:22;;;;;;;0.90;0.30;;;;;;;18.54;71.29;100452.28;5060274;28;20052;-77
2024/04/10 09:15:26;;;;;;;8.25;4.93;;;;;;;18.11;73.30;100455.66;5072746;28;20052;-74
2024/04/10 09:18:31;;;;;;;2.75;0.90;;;;;;;17.90;73.59;100452.75;5072466;28;20048;-76
2024/04/10 09:21:40;;;;;;;0.45;0.20;;;;;;;17.82;73.71;100459.09;5072344;28;20158;-77
2024/04/10 09:24:44;;;;;;;1.30;0.50;;;;;;;17.80;74.36;100471.97;5072183;28;20048;-77
2024/04/10 09:28:03;;;;;;;2.47;0.30;;;;;;;17.54;74.42;100466.84;5072533;28;20064;-76
2024/04/10 09:31:23;;;;;;;1.27;0.40;;;;;;;17.68;74.60;100457.09;5072428;28;20494;-77
2024/04/10 09:34:29;;;;;;;1.48;0.30;;;;;;;18.15;73.36;100451.53;5072255;28;20529;-77
2024/04/10 09:37:35;;;;;;;1.02;0.40;;;;;;;18.39;71.66;100453.25;5072454;28;20048;-78
2024/04/10 09:40:47;;;;;;;2.53;0.70;;;;;;;18.27;72.07;100469.13;5072060;28;20075;-76
2024/04/10 09:43:55;;;;;;;1.50;0.52;;;;;;;18.00;72.98;100475.06;5072158;28;20601;-76
2024/04/10 09:47:00;;;;;;;1.52;0.50;;;;;;;17.96;71.90;100482.75;5071965;28;20062;-76
2024/04/10 09:50:12;;;;;;;3.08;0.20;;;;;;;17.67;72.09;100489.88;5071931;28;20056;-75
2024/04/10 09:53:19;;;;;;;2.33;0.65;;;;;;;17.78;73.16;100481.31;5071952;28;20044;-77
2024/04/10 09:56:24;;;;;;;1.05;0.40;;;;;;;17.95;72.38;100472.06;5071854;28;20048;-74
2024/04/10 09:59:29;;;;;;;0.90;0.30;;;;;;;17.91;72.20;100473.44;5071619;28;20040;-77
2024/04/10 10:02:34;;;;;;;1.35;0.45;;;;;;;17.99;71.94;100476.13;5071995;28;20056;-75
2024/04/10 10:05:38;;;;;;;1.33;0.30;;;;;;;17.78;71.10;100489.47;5071990;28;20044;-75
2024/04/10 10:08:51;;;;;;;1.65;0.50;;;;;;;17.93;72.13;100482.25;5059471;28;20044;-76
2024/04/10 10:11:57;;;;;;;0.93;0.35;;;;;;;18.06;71.72;100496.09;5074028;28;20043;-75
2024/04/10 10:15:12;;;;;;;1.10;0.40;;;;;;;18.26;71.22;100499.19;5075633;28;20051;-75
2024/04/10 10:18:23;;;;;;;2.15;0.40;;;;;;;18.10;70.85;100505.56;5075387;28;20066;-78
2024/04/10 10:21:30;;;;;;;0.88;0.30;;;;;;;18.18;70.78;100503.66;5062955;28;20126;-75
2024/04/10 10:24:34;;;;;;;0.73;0.30;;;;;;;18.09;70.88;100510.19;5075492;28;20146;-77
2024/04/10 10:27:41;;;;;;;0.85;0.30;;;;;;;18.22;70.21;100515.00;5075211;28;20047;-77
2024/04/10 10:30:46;;;;;;;1.00;0.35;;;;;;;18.58;69.35;100509.84;5072891;28;20059;-77
2024/04/10 10:33:58;;;;;;;1.40;0.40;;;;;;;18.69;67.85;100515.69;5074642;28;20047;-75
2024/04/10 10:37:06;;;;;;;1.83;0.50;;;;;;;18.65;68.83;100508.09;5075447;28;20510;-76
2024/04/10 10:40:16;;;;;;;1.58;0.43;;;;;;;18.80;68.17;100509.00;5074442;28;20059;-75
2024/04/10 10:43:20;;;;;;;1.48;0.60;;;;;;;18.59;69.04;100509.66;5062626;28;20055;-76
2024/04/10 10:46:25;;;;;;;0.80;0.30;;;;;;;18.24;69.83;100510.25;5061506;28;20404;-76
2024/04/10 10:49:30;;;;;;;1.88;0.38;;;;;;;18.28;71.22;100505.28;5054361;28;20052;-76
2024/04/10 10:52:34;;;;;;;1.42;0.57;;;;;;;18.25;70.54;100511.94;5054778;28;20044;-74
2024/04/10 10:55:50;;;;;;;1.77;0.40;;;;;;;18.39;70.10;100511.19;5054531;28;20068;-76
2024/04/10 10:59:07;;;;;;;0.90;0.40;;;;;;;18.24;68.89;100512.97;5054608;28;20063;-74
2024/04/10 11:02:15;;;;;;;0.93;0.40;;;;;;;18.15;69.24;100508.59;5054640;28;20060;-76
2024/04/10 11:05:22;;;;;;;1.20;0.40;;;;;;;18.19;69.59;100509.94;5031315;28;20056;-77
2024/04/10 11:08:26;;;;;;;1.98;0.50;;;;;;;18.20;69.19;100511.63;5053606;28;20044;-78
2024/04/10 11:11:31;;;;;;;1.23;0.40;;;;;;;18.27;68.88;100518.03;5053915;28;20052;-76
2024/04/10 11:14:35;;;;;;;3.97;1.70;;;;;;;18.54;69.57;100517.53;5059157;28;20044;-79
2024/04/10 11:17:40;;;;;;;1.55;0.60;;;;;;;18.77;69.12;100520.22;5076740;28;20051;-82
2024/04/10 11:20:47;;;;;;;1.08;0.30;;;;;;;18.78;66.94;100522.78;5073473;28;20055;-79
2024/04/10 11:23:52;;;;;;;2.78;0.70;;;;;;;18.68;68.06;100532.22;5073249;28;20514;-76
2024/04/10 11:26:58;;;;;;;2.05;1.20;;;;;;;18.67;68.50;100535.94;5074248;28;20399;-78
2024/04/10 11:30:03;;;;;;;2.67;0.35;;;;;;;18.70;68.07;100541.03;5053198;28;20514;-77
2024/04/10 11:33:08;;;;;;;1.70;0.30;;;;;;;18.48;67.43;100536.44;5054142;28;20047;-78
2024/04/10 11:36:14;;;;;;;0.73;0.30;;;;;;;18.56;67.69;100539.97;5041143;28;20044;-78
2024/04/10 11:39:19;;;;;;;1.33;0.40;;;;;;;18.86;67.62;100543.63;5053257;28;20064;-76
2024/04/10 11:42:23;;;;;;;3.83;0.43;;;;;;;18.82;67.07;100550.44;5053768;28;20352;-75
2024/04/10 11:45:28;;;;;;;1.15;0.40;;;;;;;18.89;66.83;100537.81;5053323;28;20056;-77
2024/04/10 11:48:33;;;;;;;0.93;0.38;;;;;;;18.91;65.48;100543.06;5053946;28;20048;-76
2024/04/10 11:51:37;;;;;;;1.38;0.65;;;;;;;18.76;65.99;100552.00;5053136;28;20044;-78
2024/04/10 11:54:42;;;;;;;1.38;0.50;;;;;;;18.55;67.60;100549.13;5052864;28;20060;-78
2024/04/10 11:57:47;;;;;;;0.75;0.30;;;;;;;18.56;66.99;100548.13;5061021;28;20052;-76
2024/04/10 12:00:52;;;;;;;1.75;0.30;;;;;;;18.65;67.26;100549.75;5060186;28;20067;-77
2024/04/10 12:03:57;;;;;;;1.02;0.30;;;;;;;18.71;67.47;100545.47;5053517;28;20052;-76
2024/04/10 12:07:01;;;;;;;0.63;0.30;;;;;;;18.63;67.18;100554.53;5060314;28;20056;-77
2024/04/10 12:10:07;;;;;;;1.55;0.35;;;;;;;18.48;67.64;100560.91;5060237;28;20048;-78
2024/04/10 12:13:12;;;;;;;1.10;0.30;;;;;;;18.39;68.17;100554.66;5063330;28;20060;-77
2024/04/10 12:16:17;;;;;;;1.25;0.45;;;;;;;18.38;68.71;100561.13;5060653;28;20056;-77
2024/04/10 12:19:22;;;;;;;0.73;0.30;;;;;;;18.37;68.61;100559.41;5053149;28;20412;-76
2024/04/10 12:22:27;;;;;;;1.10;0.40;;;;;;;18.34;68.65;100567.94;5051805;28;20052;-78
2024/04/10 12:25:32;;;;;;;2.58;0.60;;;;;;;18.30;67.69;100569.31;5058765;28;20048;-78
2024/04/10 12:28:37;;;;;;;1.30;0.50;;;;;;;18.30;67.62;100563.88;5053120;28;20053;-79
2024/04/10 12:31:43;;;;;;;1.58;0.38;;;;;;;18.41;67.62;100562.63;5053291;28;20112;-76
2024/04/10 12:34:48;;;;;;;3.70;0.85;;;;;;;18.55;67.53;100562.72;5056950;28;20043;-78
2024/04/10 12:38:08;;;;;;;1.60;0.50;;;;;;;18.60;67.72;100563.03;5072957;28;20043;-73
2024/04/10 12:41:12;;;;;;;1.55;0.50;;;;;;;18.56;68.56;100569.88;5059553;28;20059;-78
2024/04/10 12:44:18;;;;;;;1.88;0.65;;;;;;;18.39;68.83;100564.69;5065068;28;20044;-74
2024/04/10 12:47:23;;;;;;;2.10;0.70;;;;;;;17.98;68.97;100577.63;5051162;28;20048;-75
2024/04/10 12:50:27;;;;;;;1.67;0.52;;;;;;;18.09;69.43;100575.38;5052160;28;20052;-77
2024/04/10 12:53:32;;;;;;;1.50;0.73;;;;;;;18.08;69.44;100580.97;5063271;28;20039;-76
2024/04/10 12:56:37;;;;;;;2.28;1.02;;;;;;;17.82;70.07;100569.56;5052670;28;20484;-77
2024/04/10 12:59:41;;;;;;;2.67;0.93;;;;;;;17.92;70.04;100571.06;5051762;28;20067;-78
2024/04/10 13:02:47;;;;;;;2.05;0.80;;;;;;;17.95;70.02;100578.84;5052494;28;20048;-75
2024/04/10 13:05:58;;;;;;;3.65;1.02;;;;;;;17.94;68.90;100589.88;5039389;28;20408;-76
2024/04/10 13:09:05;;;;;;;2.00;0.90;;;;;;;17.89;69.69;100589.56;5040521;28;20068;-77
2024/04/10 13:12:10;;;;;;;2.10;0.75;;;;;;;17.85;69.99;100591.78;5056491;28;20051;-76
2024/04/10 13:15:14;;;;;;;2.85;0.90;;;;;;;17.95;70.09;100589.69;5071721;28;20110;-76
2024/04/10 13:18:18;;;;;;;3.92;0.93;;;;;;;18.19;69.32;100586.84;5060276;28;20052;-76
2024/04/10 13:21:26;;;;;;;3.25;0.80;;;;;;;18.13;70.26;100592.16;5072447;28;20392;-77
2024/04/10 13:24:31;;;;;;;1.80;0.88;;;;;;;18.18;69.50;100595.19;5071976;28;20046;-77
2024/04/10 13:27:37;;;;;;;2.80;0.95;;;;;;;18.05;69.81;100606.63;5072355;28;20043;-78
2024/04/10 13:30:41;;;;;;;2.53;1.33;;;;;;;17.86;69.89;100614.34;5071658;28;20064;-76
2024/04/10 13:33:49;;;;;;;4.60;1.00;;;;;;;17.83;70.72;100609.25;5071481;28;20048;-78
2024/04/10 13:36:53;;;;;;;4.93;1.13;;;;;;;17.83;70.78;100606.53;5072125;28;20044;-74
2024/04/10 13:39:58;;;;;;;2.60;1.00;;;;;;;17.84;70.45;100605.53;5071303;28;20403;-75
2024/04/10 13:43:03;;;;;;;2.53;0.80;;;;;;;18.04;70.22;100606.81;5071773;28;20051;-74
2024/04/10 13:46:09;;;;;;;2.53;0.80;;;;;;;17.89;70.66;100614.00;5053196;28;20341;-76
2024/04/10 13:49:14;;;;;;;2.55;1.10;;;;;;;17.99;70.94;100604.63;5060411;28;20048;-77
2024/04/10 13:52:19;;;;;;;1.67;0.82;;;;;;;18.10;69.90;100616.97;5063691;28;20071;-76
2024/04/10 13:55:23;;;;;;;1.77;0.70;;;;;;;17.98;69.76;100615.66;5074031;28;20047;-77
2024/04/10 13:58:27;;;;;;;2.63;1.00;;;;;;;18.03;69.31;100615.97;5063434;28;20052;-77
2024/04/10 14:01:33;;;;;;;2.92;0.98;;;;;;;17.97;69.66;100614.00;5075903;28;20067;-74
2024/04/10 14:04:38;;;;;;;1.80;0.70;;;;;;;17.97;69.68;100616.69;5075505;28;20044;-77
2024/04/10 14:07:42;;;;;;;2.20;0.90;;;;;;;18.09;68.30;100621.56;5063425;28;20055;-77
2024/04/10 14:10:47;;;;;;;2.42;0.80;;;;;;;18.11;69.04;100632.25;5075029;28;20067;-77
2024/04/10 14:13:53;;;;;;;3.58;1.38;;;;;;;18.28;68.86;100642.03;5075529;28;20056;-76
2024/04/10 14:16:58;;;;;;;3.85;0.80;;;;;;;18.31;68.53;100644.41;5075563;28;20060;-76
2024/04/10 14:20:05;;;;;;;3.00;0.75;;;;;;;18.11;68.47;100641.25;5074538;28;20059;-75
2024/04/10 14:23:10;;;;;;;2.00;0.75;;;;;;;17.86;69.41;100644.22;5074786;28;20502;-76